createdAt,value
2023-04-13T00:01:16.380Z,6.30
2023-04-13T00:03:45.351Z,7.13
2023-04-13T00:06:11.840Z,6.10
2023-04-13T00:08:38.591Z,6.07
2023-04-13T00:11:05.681Z,7.50
2023-04-13T00:13:32.162Z,7.33
2023-04-13T00:16:00.802Z,7.10
2023-04-13T00:18:27.200Z,6.77
2023-04-13T00:20:53.722Z,6.90
2023-04-13T00:23:20.205Z,6.27
2023-04-13T00:25:46.622Z,6.17
2023-04-13T00:28:13.256Z,6.50
2023-04-13T00:30:39.698Z,6.50
2023-04-13T00:33:06.333Z,6.90
2023-04-13T00:35:32.943Z,6.20
2023-04-13T00:38:00.619Z,7.50
2023-04-13T00:40:28.257Z,7.93
2023-04-13T00:42:54.766Z,7.10
2023-04-13T00:45:21.193Z,6.93
2023-04-13T00:47:47.861Z,6.70
2023-04-13T00:50:14.585Z,7.73
2023-04-13T00:52:41.077Z,7.23
2023-04-13T00:55:07.755Z,6.97
2023-04-13T00:57:34.528Z,6.83
2023-04-13T01:00:01.598Z,6.50
2023-04-13T01:02:28.154Z,5.97
2023-04-13T01:04:58.026Z,6.00
2023-04-13T01:07:37.983Z,6.30
2023-04-13T01:10:07.473Z,7.30
2023-04-13T01:12:33.883Z,6.93
2023-04-13T01:15:02.036Z,7.20
2023-04-13T01:17:30.566Z,6.83
2023-04-13T01:20:01.514Z,6.70
2023-04-13T01:22:29.200Z,7.53
2023-04-13T01:25:14.869Z,6.30
2023-04-13T01:27:48.227Z,7.10
2023-04-13T01:30:15.062Z,6.40
2023-04-13T01:32:42.268Z,7.00
2023-04-13T01:35:10.802Z,6.40
2023-04-13T01:37:43.079Z,6.67
2023-04-13T01:40:12.931Z,6.63
2023-04-13T01:42:39.836Z,6.37
2023-04-13T01:45:11.673Z,6.33
2023-04-13T01:47:39.752Z,6.77
2023-04-13T01:50:13.485Z,7.00
2023-04-13T01:52:41.084Z,6.70
2023-04-13T01:55:07.712Z,7.17
2023-04-13T01:57:35.505Z,7.80
2023-04-13T02:00:14.269Z,7.97
2023-04-13T02:02:40.904Z,6.60
2023-04-13T02:05:09.647Z,6.77
2023-04-13T02:07:36.186Z,5.63
2023-04-13T02:10:06.105Z,6.03
2023-04-13T02:12:33.542Z,5.97
2023-04-13T02:15:01.246Z,5.87
2023-04-13T02:17:29.945Z,6.47
2023-04-13T02:19:57.294Z,6.13
2023-04-13T02:22:24.012Z,6.20
2023-04-13T02:24:50.700Z,5.83
2023-04-13T02:27:17.587Z,5.93
2023-04-13T02:29:44.722Z,6.07
2023-04-13T02:32:11.265Z,5.60
2023-04-13T02:34:37.713Z,5.70
2023-04-13T02:37:04.137Z,6.27
2023-04-13T02:39:30.912Z,6.00
2023-04-13T02:41:58.007Z,5.33
2023-04-13T02:44:24.529Z,6.07
2023-04-13T02:46:51.417Z,6.20
2023-04-13T02:49:17.963Z,5.90
2023-04-13T02:51:44.394Z,6.37
2023-04-13T02:54:11.723Z,5.97
2023-04-13T02:56:38.113Z,4.80
2023-04-13T02:59:04.546Z,5.40
2023-04-13T03:01:31.647Z,4.93
2023-04-13T03:03:58.200Z,5.80
2023-04-13T03:06:26.030Z,7.90
2023-04-13T03:08:52.509Z,7.23
2023-04-13T03:11:20.610Z,6.20
2023-04-13T03:13:47.267Z,8.77
2023-04-13T03:16:13.773Z,9.13
2023-04-13T03:18:40.203Z,12.43
2023-04-13T03:21:06.875Z,16.20
2023-04-13T03:23:33.362Z,19.30
2023-04-13T03:25:59.776Z,15.83
2023-04-13T03:28:26.281Z,34.93
2023-04-13T03:30:53.037Z,14.93
2023-04-13T03:33:19.633Z,15.23
2023-04-13T03:35:46.213Z,29.27
2023-04-13T03:38:12.692Z,28.50
2023-04-13T03:40:39.118Z,35.87
2023-04-13T03:43:05.516Z,25.80
2023-04-13T03:45:31.920Z,24.27
2023-04-13T03:47:58.424Z,28.60
2023-04-13T03:50:24.891Z,25.67
2023-04-13T03:52:51.333Z,25.13
2023-04-13T03:55:18.664Z,28.33
2023-04-13T03:57:45.293Z,22.20
2023-04-13T04:00:14.148Z,16.27
2023-04-13T04:02:41.631Z,16.77
2023-04-13T04:05:08.518Z,14.47
2023-04-13T04:07:35.156Z,12.40
2023-04-13T04:10:01.799Z,10.30
2023-04-13T04:12:28.406Z,7.53
2023-04-13T04:14:55.003Z,6.83
2023-04-13T04:17:21.682Z,6.60
2023-04-13T04:19:48.584Z,4.63
2023-04-13T04:22:15.187Z,3.83
2023-04-13T04:24:44.252Z,3.53
2023-04-13T04:27:11.557Z,5.60
2023-04-13T04:29:38.524Z,4.10
2023-04-13T04:32:05.745Z,6.17
2023-04-13T04:34:32.345Z,4.70
2023-04-13T04:37:03.077Z,3.60
2023-04-13T04:39:33.073Z,4.20
2023-04-13T04:42:05.628Z,3.77
2023-04-13T04:44:32.082Z,3.30
2023-04-13T04:47:02.864Z,3.37
2023-04-13T04:49:29.683Z,5.77
2023-04-13T04:51:57.479Z,5.60
2023-04-13T04:54:24.253Z,5.70
2023-04-13T04:56:51.377Z,5.10
2023-04-13T04:59:20.962Z,5.90
2023-04-13T05:01:49.816Z,6.63
2023-04-13T05:04:16.654Z,7.47
2023-04-13T05:06:44.681Z,7.03
2023-04-13T05:09:11.939Z,5.67
2023-04-13T05:11:39.155Z,5.83
2023-04-13T05:14:05.837Z,7.50
2023-04-13T05:16:34.445Z,5.90
2023-04-13T05:19:01.895Z,6.77
2023-04-13T05:21:28.627Z,6.60
2023-04-13T05:23:55.198Z,6.67
2023-04-13T05:26:22.141Z,6.93
2023-04-13T05:28:48.548Z,6.43
2023-04-13T05:31:15.884Z,6.63
2023-04-13T05:33:42.552Z,6.63
2023-04-13T05:36:09.851Z,6.33
2023-04-13T05:38:36.470Z,6.17
2023-04-13T05:41:03.350Z,5.20
2023-04-13T05:43:29.758Z,6.40
2023-04-13T05:45:56.288Z,5.77
2023-04-13T05:48:22.938Z,5.80
2023-04-13T05:50:49.617Z,5.17
2023-04-13T05:53:16.180Z,4.70
2023-04-13T05:55:42.851Z,3.97
2023-04-13T05:58:11.196Z,4.90
2023-04-13T06:00:38.668Z,5.37
2023-04-13T06:03:05.235Z,5.82
2023-04-13T06:05:33.034Z,6.82
2023-04-13T06:07:59.871Z,7.30
2023-04-13T06:10:26.910Z,7.78
2023-04-13T06:12:53.401Z,6.53
2023-04-13T06:15:20.588Z,6.95
2023-04-13T06:17:47.159Z,5.93
2023-04-13T06:20:15.088Z,5.22
2023-04-13T06:22:41.592Z,6.93
2023-04-13T06:25:08.619Z,8.55
2023-04-13T06:27:35.018Z,6.60
2023-04-13T06:30:02.597Z,9.10
2023-04-13T06:32:29.453Z,4.05
2023-04-13T06:34:55.849Z,4.85
2023-04-13T06:37:22.423Z,5.20
2023-04-13T06:39:48.837Z,9.20
2023-04-13T06:42:15.443Z,8.68
2023-04-13T06:44:42.885Z,6.63
2023-04-13T06:47:09.441Z,7.25
2023-04-13T06:49:36.471Z,9.23
2023-04-13T06:52:02.901Z,9.23
2023-04-13T06:54:29.628Z,6.78
2023-04-13T06:56:57.152Z,5.65
2023-04-13T06:59:23.582Z,4.75
2023-04-13T07:01:50.094Z,4.43
2023-04-13T07:04:16.946Z,4.35
2023-04-13T07:06:43.881Z,4.20
2023-04-13T07:09:10.352Z,4.70
2023-04-13T07:11:36.891Z,5.72
2023-04-13T07:14:03.929Z,6.07
2023-04-13T07:16:44.589Z,4.85
2023-04-13T07:19:11.257Z,5.57
2023-04-13T07:21:38.059Z,5.30
2023-04-13T07:24:04.825Z,6.43
2023-04-13T07:26:31.972Z,5.20
2023-04-13T07:28:58.588Z,5.13
2023-04-13T07:31:25.276Z,6.55
2023-04-13T07:33:51.879Z,4.82
2023-04-13T07:36:18.501Z,5.72
2023-04-13T07:38:44.960Z,5.45
2023-04-13T07:41:11.374Z,5.20
2023-04-13T07:43:37.874Z,6.28
2023-04-13T07:46:11.873Z,3.72
2023-04-13T07:48:38.781Z,4.30
2023-04-13T07:51:05.552Z,3.80
2023-04-13T07:53:32.135Z,6.85
2023-04-13T07:55:59.944Z,5.97
2023-04-13T07:58:26.364Z,4.20
2023-04-13T08:00:53.127Z,4.30
2023-04-13T08:03:19.691Z,4.20
2023-04-13T08:05:47.242Z,8.52
2023-04-13T08:08:13.900Z,7.95
2023-04-13T08:10:40.336Z,13.23
2023-04-13T08:13:07.023Z,4.13
2023-04-13T08:15:33.436Z,5.70
2023-04-13T08:17:59.961Z,7.70
2023-04-13T08:20:26.464Z,15.85
2023-04-13T08:22:53.098Z,6.60
2023-04-13T08:25:20.199Z,5.32
2023-04-13T08:27:46.648Z,6.50
2023-04-13T08:30:14.621Z,4.68
2023-04-13T08:32:41.664Z,5.32
2023-04-13T08:35:10.360Z,4.50
2023-04-13T08:37:36.961Z,4.63
2023-04-13T08:40:07.407Z,4.32
2023-04-13T08:42:34.521Z,7.38
2023-04-13T08:45:01.087Z,4.68
2023-04-13T08:47:27.969Z,5.07
2023-04-13T08:49:56.987Z,6.53
2023-04-13T08:52:23.546Z,8.40
2023-04-13T08:54:50.585Z,8.75
2023-04-13T08:57:17.188Z,8.48
2023-04-13T08:59:45.544Z,12.30
2023-04-13T09:02:12.150Z,9.82
2023-04-13T09:04:39.426Z,6.07
2023-04-13T09:07:07.264Z,5.40
2023-04-13T09:09:33.750Z,5.03
2023-04-13T09:12:00.157Z,5.20
2023-04-13T09:14:27.091Z,4.53
2023-04-13T09:16:53.673Z,4.28
2023-04-13T09:19:30.321Z,5.00
2023-04-13T09:21:56.792Z,4.60
2023-04-13T09:24:23.540Z,5.15
2023-04-13T09:26:50.202Z,4.63
2023-04-13T09:29:19.962Z,4.82
2023-04-13T09:31:47.006Z,4.75
2023-04-13T09:34:14.054Z,7.18
2023-04-13T09:36:52.809Z,5.82
2023-04-13T09:39:27.900Z,6.95
2023-04-13T09:41:55.089Z,5.38
2023-04-13T09:44:24.324Z,6.03
2023-04-13T09:47:00.368Z,6.03
2023-04-13T09:49:27.416Z,5.53
2023-04-13T09:51:53.961Z,4.72
2023-04-13T09:54:20.929Z,5.95
2023-04-13T09:57:05.817Z,5.43
2023-04-13T09:59:32.681Z,6.15
2023-04-13T10:01:59.186Z,6.22
2023-04-13T10:04:25.888Z,5.90
2023-04-13T10:06:52.578Z,5.35
2023-04-13T10:09:20.808Z,6.05
2023-04-13T10:11:49.977Z,6.90
2023-04-13T10:14:17.663Z,7.30
2023-04-13T10:16:48.898Z,6.82
2023-04-13T10:19:16.031Z,9.13
2023-04-13T10:21:46.351Z,21.73
2023-04-13T10:24:13.285Z,7.55
2023-04-13T10:26:40.255Z,6.75
2023-04-13T10:29:08.036Z,6.28
2023-04-13T10:31:47.734Z,6.80
2023-04-13T10:34:23.332Z,6.90
2023-04-13T10:36:51.704Z,6.80
2023-04-13T10:39:24.766Z,7.15
2023-04-13T10:42:07.821Z,6.97
2023-04-13T10:44:44.014Z,9.02
2023-04-13T10:47:11.629Z,9.23
2023-04-13T10:49:38.238Z,7.97
2023-04-13T10:52:10.760Z,8.35
2023-04-13T10:54:37.398Z,8.40
2023-04-13T10:57:04.711Z,6.70
2023-04-13T10:59:53.091Z,6.78
2023-04-13T11:02:29.600Z,6.90
2023-04-13T11:04:56.911Z,7.50
2023-04-13T11:07:23.605Z,7.18
2023-04-13T11:09:53.153Z,6.68
2023-04-13T11:12:19.645Z,6.93
2023-04-13T11:14:46.531Z,7.25
2023-04-13T11:17:17.396Z,7.03
2023-04-13T11:19:50.911Z,7.45
2023-04-13T11:22:21.600Z,7.68
2023-04-13T11:24:48.381Z,7.53
2023-04-13T11:27:24.178Z,6.70
2023-04-13T11:30:00.718Z,7.50
2023-04-13T11:32:28.133Z,7.25
2023-04-13T11:35:04.520Z,7.90
2023-04-13T11:37:35.089Z,7.18
2023-04-13T11:40:09.721Z,7.30
2023-04-13T11:42:39.988Z,7.55
2023-04-13T11:45:07.145Z,8.30
2023-04-13T11:47:33.587Z,8.18
2023-04-13T11:50:00.152Z,8.40
2023-04-13T11:52:26.553Z,7.90
2023-04-13T11:54:53.558Z,7.88
2023-04-13T11:57:20.109Z,8.18
2023-04-13T11:59:47.745Z,7.40
2023-04-13T12:02:21.713Z,8.05
2023-04-13T12:04:49.612Z,8.20
2023-04-13T12:07:16.783Z,9.32
2023-04-13T12:09:56.116Z,8.13
2023-04-13T12:15:12.694Z,7.93
2023-04-13T12:17:49.463Z,8.60
2023-04-13T12:20:16.946Z,8.27
2023-04-13T12:25:17.595Z,8.40
2023-04-13T12:27:44.346Z,8.20
2023-04-13T12:30:12.275Z,8.07
2023-04-13T12:32:48.689Z,8.48
2023-04-13T12:35:15.721Z,8.65
2023-04-13T12:37:42.458Z,9.15
2023-04-13T12:40:11.301Z,8.40
2023-04-13T12:42:38.045Z,8.02
2023-04-13T12:45:04.923Z,7.82
2023-04-13T12:47:31.481Z,8.23
2023-04-13T12:49:57.906Z,8.80
2023-04-13T12:52:24.400Z,7.82
2023-04-13T12:54:51.009Z,9.20
2023-04-13T12:57:18.376Z,8.18
2023-04-13T12:59:45.460Z,7.93
2023-04-13T13:02:12.101Z,9.10
2023-04-13T13:04:38.599Z,9.02
2023-04-13T13:07:05.207Z,8.43
2023-04-13T13:09:32.071Z,8.52
2023-04-13T13:11:58.705Z,7.40
2023-04-13T13:14:25.245Z,7.80
2023-04-13T13:16:51.787Z,7.05
2023-04-13T13:19:18.255Z,7.28
2023-04-13T13:21:44.731Z,7.88
2023-04-13T13:24:11.307Z,7.80
2023-04-13T13:27:00.209Z,7.10
2023-04-13T13:29:24.212Z,7.20
2023-04-13T13:31:51.432Z,7.32
2023-04-13T13:34:18.086Z,7.47
2023-04-13T13:36:44.563Z,8.43
2023-04-13T13:39:12.380Z,8.13
2023-04-13T13:41:38.944Z,8.65
2023-04-13T13:44:05.384Z,8.05
2023-04-13T13:46:32.069Z,8.27
2023-04-13T13:48:58.857Z,8.43
2023-04-13T13:51:27.790Z,8.25
2023-04-13T13:53:54.246Z,8.60
2023-04-13T13:56:21.164Z,13.77
2023-04-13T13:58:48.016Z,14.32
2023-04-13T14:01:14.820Z,9.90
2023-04-13T14:03:41.687Z,8.98
2023-04-13T14:06:08.381Z,10.00
2023-04-13T14:08:34.982Z,8.50
2023-04-13T14:11:01.601Z,8.93
2023-04-13T14:13:28.058Z,10.27
2023-04-13T14:15:54.542Z,9.07
2023-04-13T14:18:21.182Z,9.20
2023-04-13T14:20:47.678Z,10.68
2023-04-13T14:23:14.581Z,9.18
2023-04-13T14:25:41.430Z,11.23
2023-04-13T14:28:09.412Z,11.07
2023-04-13T14:30:37.611Z,10.68
2023-04-13T14:33:04.190Z,9.43
2023-04-13T14:35:30.743Z,9.85
2023-04-13T14:37:57.152Z,10.35
2023-04-13T14:40:24.280Z,9.85
2023-04-13T14:42:54.006Z,10.15
2023-04-13T14:45:21.143Z,10.30
2023-04-13T14:47:47.696Z,10.88
2023-04-13T14:50:15.601Z,10.93
2023-04-13T14:52:45.971Z,12.02
2023-04-13T14:55:13.004Z,11.60
2023-04-13T14:57:40.141Z,12.50
2023-04-13T15:00:26.237Z,12.43
2023-04-13T15:02:53.564Z,10.63
2023-04-13T15:05:20.397Z,12.18
2023-04-13T15:07:48.110Z,10.50
2023-04-13T15:10:14.649Z,10.88
2023-04-13T15:12:41.578Z,11.52
2023-04-13T15:15:08.474Z,10.48
2023-04-13T15:17:34.961Z,10.75
2023-04-13T15:20:01.578Z,9.20
2023-04-13T15:22:28.153Z,10.52
2023-04-13T15:24:54.966Z,10.60
2023-04-13T15:27:21.386Z,11.65
2023-04-13T15:29:47.907Z,13.05
2023-04-13T15:32:14.378Z,10.15
2023-04-13T15:34:40.780Z,11.82
2023-04-13T15:37:07.197Z,10.23
2023-04-13T15:39:33.649Z,9.10
2023-04-13T15:42:00.702Z,8.63
2023-04-13T15:44:27.153Z,9.70
2023-04-13T15:46:53.564Z,9.45
2023-04-13T15:49:19.976Z,10.00
2023-04-13T15:51:46.650Z,10.23
2023-04-13T15:54:13.124Z,9.23
2023-04-13T15:56:39.907Z,9.45
2023-04-13T15:59:06.783Z,9.73
2023-04-13T16:01:46.028Z,9.20
2023-04-13T16:04:12.794Z,10.23
2023-04-13T16:06:40.027Z,13.15
2023-04-13T16:09:06.517Z,15.00
2023-04-13T16:11:32.919Z,16.60
2023-04-13T16:14:07.208Z,23.45
2023-04-13T16:16:53.586Z,19.60
2023-04-13T16:19:20.005Z,14.50
2023-04-13T16:21:47.057Z,13.95
2023-04-13T16:24:13.527Z,15.05
2023-04-13T16:26:40.005Z,16.13
2023-04-13T16:29:08.034Z,15.82
2023-04-13T16:31:34.542Z,17.42
2023-04-13T16:34:04.920Z,17.15
2023-04-13T16:36:35.649Z,14.52
2023-04-13T16:39:06.005Z,15.75
2023-04-13T16:41:32.623Z,17.27
2023-04-13T16:43:59.244Z,17.70
2023-04-13T16:46:25.948Z,17.15
2023-04-13T16:48:52.357Z,15.68
2023-04-13T16:51:18.955Z,16.67
2023-04-13T16:53:45.460Z,17.30
2023-04-13T16:56:12.058Z,22.65
2023-04-13T16:58:38.561Z,30.02
2023-04-13T17:01:05.127Z,30.38
2023-04-13T17:03:32.210Z,24.15
2023-04-13T17:05:58.746Z,19.77
2023-04-13T17:08:25.735Z,20.00
2023-04-13T17:10:52.452Z,18.38
2023-04-13T17:13:18.929Z,18.92
2023-04-13T17:15:45.484Z,18.98
2023-04-13T17:18:12.283Z,19.00
2023-04-13T17:20:39.911Z,18.10
2023-04-13T17:23:06.360Z,19.98
2023-04-13T17:25:34.872Z,18.73
2023-04-13T17:28:01.487Z,19.48
2023-04-13T17:30:28.120Z,18.13
2023-04-13T17:32:54.646Z,20.42
2023-04-13T17:35:21.402Z,18.83
2023-04-13T17:37:48.030Z,21.50
2023-04-13T17:40:14.437Z,20.52
2023-04-13T17:42:40.885Z,21.08
2023-04-13T17:45:07.603Z,19.08
2023-04-13T17:47:34.056Z,18.48
2023-04-13T17:50:00.651Z,20.20
2023-04-13T17:52:27.082Z,19.27
2023-04-13T17:54:53.949Z,20.90
2023-04-13T17:57:20.378Z,16.60
2023-04-13T17:59:47.275Z,21.10
2023-04-13T18:02:13.776Z,23.35
2023-04-13T18:04:40.328Z,24.70
2023-04-13T18:07:07.075Z,22.10
2023-04-13T18:09:33.496Z,21.13
2023-04-13T18:12:00.004Z,25.52
2023-04-13T18:14:26.425Z,20.55
2023-04-13T18:16:52.937Z,17.40
2023-04-13T18:19:19.527Z,17.20
2023-04-13T18:21:46.014Z,19.67
2023-04-13T18:24:12.529Z,19.95
2023-04-13T18:26:39.160Z,20.05
2023-04-13T18:29:05.821Z,17.33
2023-04-13T18:31:32.408Z,17.95
2023-04-13T18:33:59.321Z,16.80
2023-04-13T18:36:26.369Z,16.02
2023-04-13T18:38:54.856Z,16.38
2023-04-13T18:41:23.818Z,16.45
2023-04-13T18:43:50.587Z,14.13
2023-04-13T18:46:17.089Z,14.40
2023-04-13T18:48:44.720Z,15.63
2023-04-13T18:51:12.663Z,14.93
2023-04-13T18:53:39.374Z,14.00
2023-04-13T18:56:05.881Z,14.10
2023-04-13T18:58:32.319Z,15.40
2023-04-13T19:00:58.793Z,15.35
2023-04-13T19:03:25.411Z,19.33
2023-04-13T19:05:52.276Z,17.23
2023-04-13T19:08:18.761Z,16.58
2023-04-13T19:10:45.269Z,15.88
2023-04-13T19:13:11.733Z,13.73
2023-04-13T19:15:39.167Z,12.38
2023-04-13T19:18:06.137Z,16.35
2023-04-13T19:20:32.555Z,14.00
2023-04-13T19:22:58.986Z,13.95
2023-04-13T19:25:25.467Z,12.68
2023-04-13T19:27:51.984Z,20.98
2023-04-13T19:30:19.504Z,22.90
2023-04-13T19:32:46.576Z,16.60
2023-04-13T19:35:13.816Z,14.93
2023-04-13T19:37:40.721Z,16.77
2023-04-13T19:40:10.125Z,14.45
2023-04-13T19:42:36.805Z,15.07
2023-04-13T19:45:03.501Z,13.73
2023-04-13T19:47:30.001Z,15.70
2023-04-13T19:49:56.983Z,16.67
2023-04-13T19:52:23.648Z,14.95
2023-04-13T19:54:50.054Z,11.90
2023-04-13T19:57:16.550Z,13.20
2023-04-13T19:59:44.198Z,13.13
2023-04-13T20:02:11.327Z,13.80
2023-04-13T20:04:38.239Z,19.67
2023-04-13T20:07:04.832Z,19.35
2023-04-13T20:09:33.342Z,20.05
2023-04-13T20:12:00.128Z,17.92
2023-04-13T20:14:26.576Z,17.02
2023-04-13T20:16:53.094Z,16.23
2023-04-13T20:19:20.315Z,14.60
2023-04-13T20:21:46.832Z,14.88
2023-04-13T20:24:13.278Z,15.80
2023-04-13T20:26:47.182Z,15.48
2023-04-13T20:29:16.771Z,16.75
2023-04-13T20:31:43.338Z,15.70
2023-04-13T20:34:12.173Z,16.80
2023-04-13T20:37:09.862Z,19.77
2023-04-13T20:39:38.064Z,19.55
2023-04-13T20:42:06.006Z,16.02
2023-04-13T20:48:48.447Z,17.58
2023-04-13T20:50:48.762Z,17.63
2023-04-13T20:53:16.876Z,18.20
2023-04-13T20:55:46.430Z,23.55
2023-04-13T20:58:14.588Z,19.52
2023-04-13T21:00:43.083Z,20.33
2023-04-13T21:03:10.067Z,24.88
2023-04-13T21:05:36.751Z,20.92
2023-04-13T21:08:03.733Z,24.10
2023-04-13T21:10:30.236Z,23.00
2023-04-13T21:12:56.683Z,20.95
2023-04-13T21:15:23.106Z,20.20
2023-04-13T21:17:49.628Z,18.80
2023-04-13T21:20:16.168Z,20.73
2023-04-13T21:22:42.659Z,20.63
2023-04-13T21:25:09.288Z,24.58
2023-04-13T21:27:35.704Z,22.52
2023-04-13T21:30:02.233Z,22.83
2023-04-13T21:32:29.521Z,22.70
2023-04-13T21:34:57.690Z,25.50
2023-04-13T21:37:24.237Z,28.47
2023-04-13T21:39:50.860Z,22.40
2023-04-13T21:42:17.441Z,21.20
2023-04-13T21:44:43.997Z,23.80
2023-04-13T21:47:10.643Z,21.75
2023-04-13T21:49:37.121Z,21.08
2023-04-13T21:52:03.720Z,26.20
2023-04-13T21:54:30.376Z,19.90
2023-04-13T21:57:00.225Z,24.75
2023-04-13T21:59:28.003Z,20.05
2023-04-13T22:01:54.875Z,23.00
2023-04-13T22:04:21.740Z,19.93
2023-04-13T22:06:48.330Z,19.70
2023-04-13T22:09:16.279Z,24.13
2023-04-13T22:11:42.765Z,23.23
2023-04-13T22:14:10.684Z,22.13
2023-04-13T22:16:37.186Z,24.27
2023-04-13T22:19:03.762Z,19.40
2023-04-13T22:21:30.310Z,19.47
2023-04-13T22:23:56.849Z,20.43
2023-04-13T22:26:25.293Z,18.70
2023-04-13T22:28:51.926Z,19.37
2023-04-13T22:31:18.412Z,18.83
2023-04-13T22:33:44.863Z,20.90
2023-04-13T22:36:19.445Z,21.53
2023-04-13T22:38:46.355Z,21.52
2023-04-13T22:41:12.818Z,19.73
2023-04-13T22:43:58.362Z,17.00
2023-04-13T22:46:24.802Z,18.83
2023-04-13T22:48:51.388Z,20.50
2023-04-13T22:51:18.175Z,18.33
2023-04-13T22:53:45.005Z,18.47
2023-04-13T22:56:12.677Z,17.00
2023-04-13T22:58:39.130Z,17.03
2023-04-13T23:01:05.520Z,17.97
2023-04-13T23:03:32.096Z,15.57
2023-04-13T23:05:58.616Z,16.10
2023-04-13T23:08:25.175Z,17.17
2023-04-13T23:10:51.815Z,15.23
2023-04-13T23:13:18.274Z,15.90
2023-04-13T23:15:44.752Z,18.10
2023-04-13T23:18:11.146Z,18.37
2023-04-13T23:20:37.585Z,17.77
2023-04-13T23:23:03.986Z,19.03
2023-04-13T23:25:30.403Z,18.47
2023-04-13T23:27:56.842Z,17.70
2023-04-13T23:30:23.599Z,18.17
2023-04-13T23:32:50.151Z,19.60
2023-04-13T23:35:16.619Z,18.30
2023-04-13T23:37:45.212Z,18.33
2023-04-13T23:40:11.897Z,16.93
2023-04-13T23:42:38.401Z,20.07
2023-04-13T23:45:05.016Z,25.13
2023-04-13T23:47:31.486Z,20.87
2023-04-13T23:49:57.997Z,24.57
2023-04-13T23:52:24.501Z,22.40
2023-04-13T23:54:51.087Z,23.53
2023-04-13T23:57:17.483Z,20.73
2023-04-13T23:59:44.170Z,21.67
